Time;durP1;ratioP1;P1;durP2;ratioP2;P2;SDS_P1;SDS_P2;PMS_P1;PMS_P2;Temp;Humidity;BMP_temperature;BMP_pressure;BME280_temperature;BME280_humidity;BME280_pressure;Samples;Min_cycle;Max_cycle;Signal;HPM_P1;HPM_P2
2022/05/24 00:02:20;;;;;;;1.00;0.65;;;;;;;26.14;53.00;98331.19;5075444;28;20423;-69
2022/05/24 00:04:46;;;;;;;1.00;0.68;;;;;;;26.13;53.13;98326.81;5075484;28;20519;-69
2022/05/24 00:07:11;;;;;;;1.33;0.77;;;;;;;26.11;53.13;98331.28;5075654;28;20043;-69
2022/05/24 00:09:38;;;;;;;0.70;0.70;;;;;;;26.10;53.24;98333.31;5075609;28;20105;-69
2022/05/24 00:12:04;;;;;;;1.13;0.70;;;;;;;26.12;53.20;98336.47;5075403;28;20041;-69
2022/05/24 00:17:13;;;;;;;1.40;0.80;;;;;;;26.09;52.96;98326.13;5075511;28;20412;-69
2022/05/24 00:19:39;;;;;;;1.35;0.80;;;;;;;26.10;53.50;98336.13;5075467;28;20496;-69
2022/05/24 00:22:04;;;;;;;0.82;0.70;;;;;;;26.08;53.20;98332.97;5075434;28;20040;-69
2022/05/24 00:24:30;;;;;;;0.93;0.65;;;;;;;26.08;53.25;98334.97;5075420;28;20405;-69
2022/05/24 00:26:55;;;;;;;1.35;1.00;;;;;;;26.08;53.44;98344.19;5072063;28;20052;-69
2022/05/24 00:29:21;;;;;;;0.80;0.70;;;;;;;26.07;53.59;98339.78;5071963;28;20043;-69
2022/05/24 00:31:48;;;;;;;1.40;0.85;;;;;;;26.06;53.68;98343.81;5053901;28;20070;-69
2022/05/24 00:34:13;;;;;;;0.82;0.70;;;;;;;26.02;53.65;98335.50;5071696;28;20049;-69
2022/05/24 00:36:39;;;;;;;1.23;0.90;;;;;;;26.04;53.75;98329.44;5071994;28;20036;-69
2022/05/24 00:39:04;;;;;;;1.17;0.90;;;;;;;26.03;53.93;98327.88;5072081;28;20048;-69
2022/05/24 00:41:58;;;;;;;1.42;0.80;;;;;;;26.02;53.85;98329.09;5071932;28;20428;-69
2022/05/24 00:44:45;;;;;;;2.85;0.80;;;;;;;25.98;54.10;98334.78;5071746;28;20049;-69
2022/05/24 00:47:16;;;;;;;0.90;0.70;;;;;;;25.99;54.28;98341.16;5071715;28;20094;-69
2022/05/24 00:49:47;;;;;;;2.03;1.02;;;;;;;25.98;54.30;98351.59;5071496;28;20424;-69
2022/05/24 00:52:20;;;;;;;1.15;0.80;;;;;;;25.98;54.47;98350.81;5071434;28;20113;-69
2022/05/24 00:54:46;;;;;;;1.17;0.70;;;;;;;25.98;54.45;98353.59;5071595;28;20106;-69
2022/05/24 00:57:35;;;;;;;1.20;0.90;;;;;;;25.96;54.33;98345.63;5071580;28;20090;-69
2022/05/24 01:00:07;;;;;;;1.10;0.80;;;;;;;25.96;54.10;98356.06;5071646;28;20049;-69
2022/05/24 01:02:35;;;;;;;1.40;0.90;;;;;;;25.96;54.30;98350.47;5071384;28;20427;-69
2022/05/24 01:05:01;;;;;;;2.08;1.00;;;;;;;25.93;54.44;98351.31;5071335;28;20060;-69
2022/05/24 01:07:26;;;;;;;1.25;0.90;;;;;;;25.94;54.43;98353.69;5071382;28;20047;-69
2022/05/24 01:10:01;;;;;;;1.38;0.82;;;;;;;25.90;54.43;98352.19;5069924;28;20108;-69
2022/05/24 01:12:34;;;;;;;1.73;1.05;;;;;;;25.91;54.29;98359.38;5050457;28;20071;-69
2022/05/24 01:15:03;;;;;;;0.95;0.75;;;;;;;25.92;54.26;98363.75;5051252;28;20125;-69
2022/05/24 01:17:29;;;;;;;1.52;1.00;;;;;;;25.91;54.41;98350.97;5050961;28;20412;-69
2022/05/24 01:19:55;;;;;;;1.48;0.90;;;;;;;25.91;54.53;98359.38;5051271;28;20045;-69
2022/05/24 01:22:35;;;;;;;1.58;0.93;;;;;;;25.90;54.27;98357.81;5055337;28;20078;-69
2022/05/24 01:25:16;;;;;;;1.00;0.70;;;;;;;25.88;54.30;98354.66;5059863;28;20049;-69
2022/05/24 01:27:41;;;;;;;1.10;0.80;;;;;;;25.86;54.71;98368.28;5059700;28;20045;-69
2022/05/24 01:30:08;;;;;;;1.33;1.00;;;;;;;25.87;54.23;98373.47;5056051;28;20087;-69
2022/05/24 01:38:07;;;;;;;1.20;0.65;;;;;;;25.84;54.58;98360.31;5049576;28;20056;-69
2022/05/24 01:40:33;;;;;;;1.35;0.77;;;;;;;25.84;54.19;98370.75;5050985;28;20041;-69
2022/05/24 01:42:58;;;;;;;1.45;1.00;;;;;;;25.82;54.27;98357.19;5050903;28;20382;-69
2022/05/24 01:45:31;;;;;;;1.00;0.80;;;;;;;25.82;54.57;98365.56;5050858;28;20497;-69
2022/05/24 01:48:05;;;;;;;1.45;0.93;;;;;;;25.79;54.10;98370.03;5048806;28;20131;-69
2022/05/24 01:50:31;;;;;;;1.65;0.90;;;;;;;25.82;54.26;98384.41;5050635;28;20060;-69
2022/05/24 01:53:03;;;;;;;1.27;0.88;;;;;;;25.81;54.33;98385.63;5050740;28;20056;-69
2022/05/24 01:55:54;;;;;;;1.27;0.88;;;;;;;25.79;53.98;98392.47;5050671;28;20509;-69
2022/05/24 01:58:22;;;;;;;1.58;0.98;;;;;;;25.78;53.89;98378.84;5050587;28;20041;-69
2022/05/24 02:00:53;;;;;;;1.25;0.93;;;;;;;25.78;53.74;98378.84;5050539;28;20581;-69
2022/05/24 02:03:19;;;;;;;1.73;1.10;;;;;;;25.81;54.04;98388.44;5050416;28;20041;-69
2022/05/24 02:05:45;;;;;;;1.05;0.88;;;;;;;25.81;53.94;98385.63;5050625;28;20040;-69
2022/05/24 02:08:12;;;;;;;1.30;0.85;;;;;;;25.79;54.10;98383.28;5050377;28;20040;-69
2022/05/24 02:11:01;;;;;;;1.48;0.90;;;;;;;25.79;53.96;98389.66;5050473;28;20037;-69
2022/05/24 02:13:34;;;;;;;1.05;0.82;;;;;;;25.77;53.61;98383.69;5035338;28;20057;-69
2022/05/24 02:16:05;;;;;;;1.40;0.80;;;;;;;25.78;53.84;98388.06;5048278;28;20116;-69
2022/05/24 02:18:32;;;;;;;1.42;0.90;;;;;;;25.78;53.71;98390.06;5050383;28;20044;-69
2022/05/24 02:20:58;;;;;;;1.65;1.10;;;;;;;25.77;53.67;98391.28;5050236;28;20049;-69
2022/05/24 02:23:23;;;;;;;1.40;0.90;;;;;;;25.78;53.69;98390.06;5049911;28;20393;-69
2022/05/24 02:25:58;;;;;;;1.23;0.80;;;;;;;25.76;53.84;98393.31;5049972;28;20064;-69
2022/05/24 02:28:27;;;;;;;1.60;0.80;;;;;;;25.76;54.22;98400.91;5050281;28;20037;-69
2022/05/24 02:31:00;;;;;;;1.10;0.80;;;;;;;25.74;53.73;98401.38;5049823;28;20420;-69
2022/05/24 02:33:26;;;;;;;0.88;0.60;;;;;;;25.74;53.99;98392.97;5049819;28;20053;-69
2022/05/24 02:35:52;;;;;;;1.45;0.98;;;;;;;25.74;54.08;98392.97;5049865;28;20044;-69
2022/05/24 02:38:18;;;;;;;1.70;1.00;;;;;;;25.74;54.03;98390.16;5041017;28;20039;-69
2022/05/24 02:43:29;;;;;;;1.30;0.90;;;;;;;25.72;53.69;98400.22;5050193;28;21067;-69
2022/05/24 02:45:54;;;;;;;1.42;1.00;;;;;;;25.73;53.79;98407.41;5030968;28;20038;-69
2022/05/24 02:48:20;;;;;;;1.50;0.90;;;;;;;25.73;53.99;98411.00;5049911;28;20064;-69
2022/05/24 02:50:46;;;;;;;1.02;0.70;;;;;;;25.71;53.76;98407.78;5031105;28;20087;-69
2022/05/24 02:53:11;;;;;;;0.88;0.77;;;;;;;25.69;54.09;98410.22;5049676;28;20585;-69
2022/05/24 02:55:37;;;;;;;0.55;0.52;;;;;;;25.69;53.78;98404.63;5049905;28;20409;-69
2022/05/24 02:58:03;;;;;;;1.38;0.90;;;;;;;25.71;53.87;98407.00;5050002;28;20413;-69
2022/05/24 03:00:29;;;;;;;1.40;0.80;;;;;;;25.70;53.71;98422.22;5049697;28;20045;-69
2022/05/24 03:02:54;;;;;;;1.50;0.80;;;;;;;25.68;53.40;98408.66;5049678;28;20457;-69
2022/05/24 03:05:20;;;;;;;1.20;0.80;;;;;;;25.64;53.67;98416.34;5049338;28;20068;-69
2022/05/24 03:10:31;;;;;;;1.17;0.80;;;;;;;25.67;53.41;98409.88;5048796;28;20090;-69
2022/05/24 03:15:43;;;;;;;1.00;0.77;;;;;;;25.67;53.59;98417.50;5049422;28;20056;-69
2022/05/24 03:18:11;;;;;;;0.90;0.60;;;;;;;25.65;53.38;98415.13;5049452;28;20041;-69
2022/05/24 03:20:37;;;;;;;1.20;0.75;;;;;;;25.63;53.15;98423.16;5049607;28;20091;-69
2022/05/24 03:23:03;;;;;;;1.10;0.70;;;;;;;25.63;53.17;98425.97;5049452;28;20045;-69
2022/05/24 03:25:31;;;;;;;1.63;0.70;;;;;;;25.61;53.35;98413.63;5049393;28;20048;-69
2022/05/24 03:27:57;;;;;;;1.05;0.70;;;;;;;25.61;53.16;98420.00;5049491;28;20128;-69
2022/05/24 03:30:22;;;;;;;0.90;0.68;;;;;;;25.61;52.94;98420.00;5049390;28;20124;-69
2022/05/24 03:32:49;;;;;;;1.42;0.82;;;;;;;25.61;53.13;98420.00;5049317;28;20160;-69
2022/05/24 03:35:14;;;;;;;1.35;0.70;;;;;;;25.60;53.20;98423.25;5049146;28;20037;-69
2022/05/24 03:37:41;;;;;;;1.50;0.90;;;;;;;25.61;52.98;98419.22;5049357;28;20041;-69
2022/05/24 03:40:09;;;;;;;1.08;0.70;;;;;;;25.60;53.12;98428.84;5049172;28;20037;-69
2022/05/24 03:42:35;;;;;;;0.88;0.70;;;;;;;25.61;52.87;98424.81;5049038;28;20098;-69
2022/05/24 03:45:00;;;;;;;1.20;0.75;;;;;;;25.57;53.04;98427.69;5048984;28;20045;-69
2022/05/24 03:47:26;;;;;;;0.95;0.70;;;;;;;25.59;52.65;98430.84;5047203;28;20045;-69
2022/05/24 03:49:52;;;;;;;0.82;0.70;;;;;;;25.60;52.73;98432.44;5049070;28;20387;-69
2022/05/24 03:52:17;;;;;;;0.95;0.70;;;;;;;25.58;52.64;98434.88;5048940;28;20602;-69
2022/05/24 03:54:42;;;;;;;0.95;0.60;;;;;;;25.58;52.61;98439.69;5049119;28;20413;-69
2022/05/24 03:59:52;;;;;;;0.75;0.68;;;;;;;25.55;52.19;98440.53;5049044;28;20192;-69
2022/05/24 04:02:18;;;;;;;2.15;0.73;;;;;;;25.53;52.28;98440.97;5051280;28;20114;-69
2022/05/24 04:04:43;;;;;;;0.90;0.70;;;;;;;25.53;52.19;98440.97;5052452;28;20049;-69
2022/05/24 04:07:09;;;;;;;1.10;0.60;;;;;;;25.52;51.91;98433.81;5052389;28;20037;-69
2022/05/24 04:09:34;;;;;;;1.00;0.68;;;;;;;25.49;52.00;98429.84;5052175;28;20043;-69
2022/05/24 04:12:01;;;;;;;0.75;0.60;;;;;;;25.49;52.23;98434.66;5052309;28;20416;-69
2022/05/24 04:14:29;;;;;;;1.20;0.70;;;;;;;25.50;51.88;98439.03;5034104;28;20044;-69
2022/05/24 04:16:55;;;;;;;0.90;0.70;;;;;;;25.48;52.11;98442.25;5052161;28;20053;-69
2022/05/24 04:19:21;;;;;;;0.80;0.68;;;;;;;25.49;51.72;98451.44;5052044;28;20048;-69
2022/05/24 04:21:46;;;;;;;0.80;0.52;;;;;;;25.48;51.84;98450.66;5051924;28;20060;-70
2022/05/24 04:24:12;;;;;;;0.80;0.60;;;;;;;25.49;51.95;98457.06;5051908;28;20497;-69
2022/05/24 04:26:37;;;;;;;0.80;0.60;;;;;;;25.48;51.77;98450.66;5052022;28;20456;-69
2022/05/24 04:29:03;;;;;;;0.80;0.60;;;;;;;25.50;51.56;98458.63;5052246;28;20402;-69
2022/05/24 04:31:28;;;;;;;0.65;0.50;;;;;;;25.47;51.47;98481.91;5052017;28;20451;-69
2022/05/24 04:33:53;;;;;;;1.00;0.60;;;;;;;25.47;50.51;98499.47;5051790;28;20048;-69
2022/05/24 04:36:19;;;;;;;0.80;0.57;;;;;;;25.48;49.91;98489.84;5051865;28;20124;-69
2022/05/24 04:38:44;;;;;;;0.60;0.57;;;;;;;25.49;49.77;98490.66;5051684;28;20072;-69
2022/05/24 04:43:53;;;;;;;0.80;0.57;;;;;;;25.48;49.36;98477.88;5051646;28;20051;-69
2022/05/24 04:46:19;;;;;;;0.57;0.47;;;;;;;25.49;48.71;98476.66;5051823;28;20032;-69
2022/05/24 04:48:45;;;;;;;0.65;0.60;;;;;;;25.46;49.01;98491.53;5051614;28;20094;-69
2022/05/24 04:51:10;;;;;;;0.60;0.50;;;;;;;25.49;48.62;98515.84;5051645;28;20053;-69
2022/05/24 04:53:36;;;;;;;0.52;0.50;;;;;;;25.49;48.55;98490.66;5051500;28;20344;-69
2022/05/24 04:56:02;;;;;;;0.60;0.40;;;;;;;25.49;48.06;98507.44;5051700;28;20131;-69
2022/05/24 04:58:27;;;;;;;0.50;0.40;;;;;;;25.49;48.35;98497.03;5051600;28;20532;-69
2022/05/24 05:00:53;;;;;;;0.93;0.50;;;;;;;25.47;48.15;98496.69;5051682;28;20045;-69
2022/05/24 05:03:20;;;;;;;0.50;0.40;;;;;;;25.48;47.63;98508.66;5051377;28;20049;-69
2022/05/24 05:05:47;;;;;;;0.38;0.30;;;;;;;25.48;47.59;98514.28;5051368;28;20055;-69
2022/05/24 05:08:13;;;;;;;0.75;0.50;;;;;;;25.47;47.28;98510.69;5032479;28;20046;-69
2022/05/24 05:10:39;;;;;;;0.68;0.40;;;;;;;25.47;46.97;98516.28;5051335;28;20049;-69
2022/05/24 05:13:05;;;;;;;0.60;0.40;;;;;;;25.46;46.84;98527.91;5050894;28;20053;-69
2022/05/24 05:15:34;;;;;;;0.38;0.38;;;;;;;25.45;46.62;98526.34;5051274;28;20049;-70
2022/05/24 05:18:08;;;;;;;0.75;0.55;;;;;;;25.46;46.03;98542.72;5051126;28;20041;-69
2022/05/24 05:20:39;;;;;;;0.55;0.47;;;;;;;25.45;46.31;98543.13;5051312;28;20045;-69
2022/05/24 05:23:10;;;;;;;0.35;0.30;;;;;;;25.46;46.06;98541.91;5051274;28;20412;-63
2022/05/24 05:25:37;;;;;;;0.85;0.50;;;;;;;25.46;46.20;98547.50;5051278;28;20099;-69
2022/05/24 05:28:03;;;;;;;0.45;0.40;;;;;;;25.45;45.63;98551.53;5051103;28;20140;-69
2022/05/24 05:33:15;;;;;;;0.65;0.40;;;;;;;25.41;45.24;98551.59;5051038;28;20103;-69
2022/05/24 05:35:44;;;;;;;0.68;0.50;;;;;;;25.39;45.15;98544.84;5051250;28;20064;-69
2022/05/24 05:38:10;;;;;;;0.60;0.40;;;;;;;25.40;44.84;98550.00;5051002;28;20043;-68
2022/05/24 05:40:35;;;;;;;0.60;0.50;;;;;;;25.38;44.61;98548.88;5050838;28;20436;-69
2022/05/24 05:43:01;;;;;;;3.65;0.30;;;;;;;25.39;44.27;98544.84;5050941;28;20493;-69
2022/05/24 05:45:26;;;;;;;0.35;0.28;;;;;;;25.39;44.18;98547.66;5050788;28;20128;-69
2022/05/24 05:47:53;;;;;;;0.55;0.30;;;;;;;25.38;44.19;98544.06;5050460;28;20053;-69
2022/05/24 05:50:20;;;;;;;0.30;0.30;;;;;;;25.38;44.03;98548.88;5050470;28;20077;-69
2022/05/24 05:52:45;;;;;;;0.52;0.32;;;;;;;25.38;44.10;98552.44;5050884;28;20053;-69
2022/05/24 05:55:12;;;;;;;0.52;0.30;;;;;;;25.39;43.51;98544.84;5050796;28;20402;-69
2022/05/24 05:57:38;;;;;;;1.13;0.30;;;;;;;25.41;43.57;98562.00;5050751;28;20413;-69
2022/05/24 06:00:05;;;;;;;0.25;0.20;;;;;;;25.41;43.31;98562.78;5050565;28;20073;-69
2022/05/24 06:02:30;;;;;;;0.93;0.47;;;;;;;25.42;43.57;98581.16;5050590;28;20067;-69
2022/05/24 06:04:55;;;;;;;0.28;0.28;;;;;;;25.50;43.59;98565.03;5050484;28;20524;-69
2022/05/24 06:07:22;;;;;;;0.20;0.20;;;;;;;25.53;42.84;98567.78;5050495;28;20090;-69
2022/05/24 06:09:48;;;;;;;0.38;0.28;;;;;;;25.54;43.10;98571.38;5032582;28;20080;-69
2022/05/24 06:12:13;;;;;;;0.68;0.40;;;;;;;25.59;43.29;98581.28;5050368;28;20497;-69
2022/05/24 06:14:38;;;;;;;0.25;0.25;;;;;;;25.60;42.94;98583.66;5050335;28;20481;-69
2022/05/24 06:17:04;;;;;;;1.35;0.30;;;;;;;25.60;43.17;98592.06;5050344;28;20049;-69
2022/05/24 06:19:29;;;;;;;0.25;0.25;;;;;;;25.60;42.97;98589.25;5050238;28;20097;-69
2022/05/24 06:21:54;;;;;;;0.30;0.20;;;;;;;25.60;42.66;98586.47;5050222;28;20072;-69
2022/05/24 06:24:20;;;;;;;0.43;0.40;;;;;;;25.62;42.24;98578.41;5049403;28;20055;-69
2022/05/24 06:26:45;;;;;;;0.30;0.25;;;;;;;25.61;42.95;98582.44;5050263;28;20077;-64
2022/05/24 06:29:11;;;;;;;1.42;0.20;;;;;;;25.74;43.60;98580.63;5065982;28;20044;-64
2022/05/24 06:31:36;;;;;;;1.42;0.40;;;;;;;25.76;41.83;98575.38;5068602;28;20049;-64
2022/05/24 06:34:02;;;;;;;0.88;0.40;;;;;;;25.82;41.58;98575.69;5073925;28;20052;-64
2022/05/24 06:36:27;;;;;;;1.58;0.40;;;;;;;25.93;42.08;98581.06;5070628;28;20085;-64
2022/05/24 06:38:53;;;;;;;2.50;0.40;;;;;;;26.00;41.63;98590.16;5069865;28;20041;-65
2022/05/24 06:41:18;;;;;;;1.58;0.38;;;;;;;25.95;40.09;98593.44;5069862;28;20063;-64
2022/05/24 06:43:43;;;;;;;4.25;0.63;;;;;;;25.92;40.07;98596.31;5066952;28;20050;-63
2022/05/24 06:46:09;;;;;;;2.08;0.40;;;;;;;25.97;40.68;98590.22;5069868;28;20424;-63
2022/05/24 06:48:40;;;;;;;2.95;0.38;;;;;;;26.04;40.38;98604.09;5059807;28;20424;-63
2022/05/24 06:51:20;;;;;;;0.60;0.32;;;;;;;26.11;40.50;98603.94;5050579;28;20416;-64
2022/05/24 06:53:48;;;;;;;0.90;0.38;;;;;;;26.15;40.89;98609.47;5063033;28;20049;-68
2022/05/24 06:56:14;;;;;;;2.42;0.30;;;;;;;26.17;40.50;98605.03;5053781;28;20103;-65
2022/05/24 06:58:40;;;;;;;1.52;0.30;;;;;;;26.23;40.46;98599.72;5054253;28;20250;-63
2022/05/24 07:03:52;;;;;;;1.00;0.30;;;;;;;26.21;40.62;98604.94;5058069;28;20570;-63
2022/05/24 07:06:21;;;;;;;1.90;0.40;;;;;;;26.21;40.72;98597.31;5061928;28;20570;-63
2022/05/24 07:08:48;;;;;;;0.25;0.25;;;;;;;26.06;40.63;98580.00;5049614;28;20094;-63
2022/05/24 07:11:16;;;;;;;0.63;0.20;;;;;;;25.93;41.09;98576.28;5060542;28;20264;-63
2022/05/24 07:13:42;;;;;;;1.00;0.40;;;;;;;25.87;41.19;98585.63;5067677;28;20440;-63
2022/05/24 07:16:08;;;;;;;0.82;0.28;;;;;;;25.85;41.68;98586.00;5052763;28;20044;-64
2022/05/24 07:18:34;;;;;;;1.58;0.50;;;;;;;25.80;41.96;98594.94;5046201;28;20044;-63
2022/05/24 07:21:00;;;;;;;0.47;0.30;;;;;;;25.80;41.85;98589.34;5066725;28;20094;-63
2022/05/24 07:23:26;;;;;;;1.65;0.32;;;;;;;25.81;42.01;98602.13;5048778;28;20053;-62
2022/05/24 07:25:53;;;;;;;0.20;0.20;;;;;;;25.82;42.39;98609.31;5061513;28;20686;-63
2022/05/24 07:28:20;;;;;;;1.15;0.40;;;;;;;25.82;42.22;98614.91;5056676;28;20447;-63
2022/05/24 07:30:49;;;;;;;0.70;0.32;;;;;;;25.85;42.29;98614.03;5054485;28;20770;-63
2022/05/24 07:33:16;;;;;;;0.80;0.40;;;;;;;25.85;42.36;98613.25;5059321;28;20135;-65
2022/05/24 07:35:43;;;;;;;0.47;0.30;;;;;;;25.87;42.32;98611.63;5063426;28;20542;-66
2022/05/24 07:38:10;;;;;;;0.98;0.30;;;;;;;25.84;42.38;98615.25;5067481;28;20131;-65
2022/05/24 07:46:10;;;;;;;0.52;0.30;;;;;;;26.16;43.20;98619.47;5057570;28;20134;-70
2022/05/24 07:48:36;;;;;;;2.50;0.40;;;;;;;26.21;43.37;98625.34;5059511;28;20522;-63
2022/05/24 07:51:03;;;;;;;0.40;0.28;;;;;;;26.25;43.65;98625.28;5062472;28;20159;-66
2022/05/24 07:53:28;;;;;;;6.30;0.40;;;;;;;26.29;43.85;98621.22;5066545;28;20055;-69
2022/05/24 07:55:55;;;;;;;0.70;0.30;;;;;;;26.32;43.90;98628.75;5063475;28;20401;-63
2022/05/24 07:58:21;;;;;;;0.85;0.35;;;;;;;26.30;43.61;98619.97;5062755;28;20052;-66
2022/05/24 08:00:47;;;;;;;3.92;0.73;;;;;;;26.26;43.23;98622.06;5065622;28;20040;-68
2022/05/24 08:03:12;;;;;;;1.40;0.35;;;;;;;26.23;43.02;98628.53;5060325;28;20060;-68
2022/05/24 08:05:38;;;;;;;4.05;0.40;;;;;;;26.22;43.02;98638.16;5067834;28;21046;-66
2022/05/24 08:08:06;;;;;;;3.47;0.40;;;;;;;26.21;42.50;98641.38;5061424;28;20082;-69
2022/05/24 08:10:33;;;;;;;3.13;0.38;;;;;;;26.16;42.95;98633.50;5055787;28;20385;-69
2022/05/24 08:13:04;;;;;;;1.17;0.38;;;;;;;26.17;42.43;98640.69;5050898;28;20049;-70
2022/05/24 08:15:30;;;;;;;0.75;0.32;;;;;;;26.18;42.26;98631.84;5063354;28;20106;-70
2022/05/24 08:17:56;;;;;;;1.92;0.28;;;;;;;26.21;42.21;98649.78;5061720;28;20032;-69
2022/05/24 08:20:21;;;;;;;1.25;0.30;;;;;;;26.20;41.81;98651.81;5032445;28;20040;-71
2022/05/24 08:22:47;;;;;;;1.00;0.28;;;;;;;26.19;41.35;98649.44;5064970;28;20048;-71
2022/05/24 08:25:14;;;;;;;0.22;0.15;;;;;;;26.17;41.10;98641.47;5063529;28;20056;-71
2022/05/24 08:27:39;;;;;;;0.20;0.20;;;;;;;26.17;41.40;98629.47;5038117;28;21692;-72
2022/05/24 08:30:06;;;;;;;1.30;0.40;;;;;;;26.16;40.45;98644.69;5059255;28;20049;-70
2022/05/24 08:32:32;;;;;;;0.30;0.30;;;;;;;26.15;40.20;98648.69;5060309;28;20049;-70
2022/05/24 08:34:58;;;;;;;0.45;0.20;;;;;;;26.15;40.46;98643.09;5062221;28;20111;-69
2022/05/24 08:37:23;;;;;;;0.95;0.30;;;;;;;26.16;40.36;98651.09;5063152;28;20045;-69
2022/05/24 08:39:49;;;;;;;0.32;0.22;;;;;;;26.18;40.26;98653.47;5056428;28;20052;-70
2022/05/24 08:42:27;;;;;;;2.42;0.30;;;;;;;26.18;40.56;98648.66;5057300;28;20048;-70
2022/05/24 08:48:25;;;;;;;0.10;0.10;;;;;;;26.19;40.37;98666.25;5055783;28;20059;-71
2022/05/24 08:51:02;;;;;;;1.50;0.40;;;;;;;26.16;40.13;98641.91;5054383;28;20095;-71
2022/05/24 08:53:37;;;;;;;1.30;0.32;;;;;;;26.22;40.46;98648.56;5049683;28;20135;-70
2022/05/24 08:56:09;;;;;;;0.68;0.20;;;;;;;26.21;40.67;98641.38;5064633;28;20337;-69
2022/05/24 08:58:38;;;;;;;0.88;0.30;;;;;;;26.32;40.39;98648.38;5040788;28;20049;-68
2022/05/24 09:01:12;;;;;;;0.60;0.30;;;;;;;26.33;40.25;98651.97;5039625;28;20523;-70
2022/05/24 09:03:38;;;;;;;0.40;0.30;;;;;;;26.29;40.14;98649.25;5062510;28;20479;-70
2022/05/24 09:06:32;;;;;;;0.25;0.20;;;;;;;26.25;40.54;98654.13;5039605;28;20694;-70
2022/05/24 09:09:19;;;;;;;0.77;0.22;;;;;;;26.26;40.13;98646.50;5057438;28;20099;-70
2022/05/24 09:11:45;;;;;;;0.10;0.10;;;;;;;26.22;40.16;98645.75;5055409;28;20052;-69
2022/05/24 09:14:22;;;;;;;0.47;0.10;;;;;;;26.26;40.12;98652.91;5068730;28;20044;-69
2022/05/24 09:17:22;;;;;;;0.20;0.20;;;;;;;26.20;39.81;98651.00;5061414;28;20095;-70
2022/05/24 09:19:48;;;;;;;0.60;0.30;;;;;;;26.19;39.85;98643.84;5065961;28;20120;-68
2022/05/24 09:22:14;;;;;;;0.20;0.20;;;;;;;26.14;39.86;98645.13;5055923;28;20166;-70
2022/05/24 09:24:44;;;;;;;0.10;0.10;;;;;;;26.12;40.03;98650.38;5060953;28;20474;-69
2022/05/24 09:27:12;;;;;;;0.20;0.13;;;;;;;26.12;39.75;98649.56;5067862;28;20040;-70
2022/05/24 09:29:52;;;;;;;0.65;0.30;;;;;;;26.13;40.27;98651.16;5058494;28;20040;-70
2022/05/24 09:32:19;;;;;;;0.63;0.30;;;;;;;26.08;39.78;98649.66;5063598;28;20421;-69
2022/05/24 09:34:44;;;;;;;0.10;0.10;;;;;;;26.06;39.78;98658.47;5056584;28;20048;-68
2022/05/24 09:37:22;;;;;;;2.33;0.20;;;;;;;26.08;39.36;98651.66;5061582;28;20416;-69
2022/05/24 09:40:23;;;;;;;0.57;0.20;;;;;;;26.04;39.54;98648.91;5056852;28;20407;-70
2022/05/24 09:42:49;;;;;;;0.22;0.20;;;;;;;26.04;40.00;98657.31;5017969;28;20043;-70
2022/05/24 09:45:28;;;;;;;0.68;0.30;;;;;;;26.03;39.71;98653.72;5066055;28;20044;-70
2022/05/24 09:47:58;;;;;;;0.40;0.20;;;;;;;26.06;39.88;98646.47;5060522;28;20040;-72
2022/05/24 09:50:37;;;;;;;0.32;0.22;;;;;;;26.10;39.83;98641.59;5066695;28;20048;-72
2022/05/24 09:53:02;;;;;;;0.75;0.20;;;;;;;26.10;39.60;98641.59;5045850;28;20135;-74
2022/05/24 09:55:47;;;;;;;2.72;0.30;;;;;;;26.08;39.44;98648.88;5065016;28;20139;-74
2022/05/24 09:58:27;;;;;;;0.22;0.22;;;;;;;26.03;39.60;98636.13;5054828;28;20490;-73
2022/05/24 10:01:04;;;;;;;0.70;0.30;;;;;;;26.04;39.49;98634.91;5060640;28;20171;-74
2022/05/24 10:03:39;;;;;;;0.47;0.20;;;;;;;26.01;39.86;98635.78;5057126;28;20489;-73
2022/05/24 10:06:26;;;;;;;0.57;0.22;;;;;;;26.06;39.66;98635.25;5049701;28;20056;-64
2022/05/24 10:09:10;;;;;;;0.35;0.20;;;;;;;26.09;39.51;98647.66;5047726;28;20049;-65
2022/05/24 10:11:47;;;;;;;0.20;0.20;;;;;;;26.07;39.88;98645.25;5058672;28;20500;-62
2022/05/24 10:14:48;;;;;;;0.40;0.30;;;;;;;26.01;39.77;98639.38;5050999;28;20053;-61
2022/05/24 10:17:28;;;;;;;0.47;0.22;;;;;;;26.06;39.54;98646.47;5058050;28;20602;-62
2022/05/24 10:20:12;;;;;;;0.43;0.22;;;;;;;26.04;39.40;98648.91;5059371;28;20040;-63
2022/05/24 10:22:53;;;;;;;0.80;0.30;;;;;;;26.02;39.72;98637.34;5061378;28;20060;-62
2022/05/24 10:25:29;;;;;;;0.10;0.10;;;;;;;26.07;39.44;98642.44;5067691;28;20043;-62
2022/05/24 10:28:06;;;;;;;0.40;0.20;;;;;;;26.01;39.88;98638.59;5065464;28;20072;-62
2022/05/24 10:30:44;;;;;;;0.40;0.20;;;;;;;26.01;39.37;98632.97;5052308;28;20072;-61
2022/05/24 10:39:22;;;;;;;0.20;0.20;;;;;;;26.01;39.66;98635.78;5068292;28;20432;-61
2022/05/24 10:41:53;;;;;;;0.40;0.17;;;;;;;26.05;39.23;98633.69;5059700;28;20416;-62
2022/05/24 10:44:23;;;;;;;0.25;0.17;;;;;;;26.01;39.30;98635.78;5059242;28;20573;-62
2022/05/24 10:47:14;;;;;;;1.13;0.20;;;;;;;25.99;39.59;98638.19;5062532;28;20041;-62
2022/05/24 10:49:46;;;;;;;0.35;0.10;;;;;;;26.01;38.95;98628.16;5056257;28;20471;-62
2022/05/24 10:52:24;;;;;;;0.65;0.28;;;;;;;25.99;39.03;98635.41;5058773;28;20044;-62
2022/05/24 10:54:58;;;;;;;0.30;0.10;;;;;;;25.97;38.83;98630.22;5069144;28;20052;-65
2022/05/24 10:57:36;;;;;;;0.20;0.20;;;;;;;25.97;38.96;98629.44;5053340;28;20550;-62
2022/05/24 11:00:13;;;;;;;0.20;0.20;;;;;;;26.00;38.72;98620.16;5055976;28;20123;-62
2022/05/24 11:03:06;;;;;;;0.68;0.22;;;;;;;26.02;38.93;98615.72;5057243;28;20032;-62
2022/05/24 11:05:43;;;;;;;2.42;0.47;;;;;;;26.16;38.12;98617.47;5055900;28;20052;-62
2022/05/24 11:08:44;;;;;;;0.43;0.30;;;;;;;26.12;37.24;98610.34;5051327;28;20512;-62
2022/05/24 11:11:29;;;;;;;1.02;0.40;;;;;;;26.05;36.39;98612.06;5049260;28;20144;-62
2022/05/24 11:14:10;;;;;;;1.27;0.40;;;;;;;26.02;36.63;98612.13;5048809;28;20064;-62
2022/05/24 11:16:41;;;;;;;0.80;0.40;;;;;;;26.02;36.63;98604.53;5035443;28;20459;-62
2022/05/24 11:19:49;;;;;;;1.10;0.47;;;;;;;25.98;36.38;98606.59;5054561;28;20036;-62
2022/05/24 11:22:21;;;;;;;1.55;0.40;;;;;;;25.97;36.23;98598.63;5059582;28;20067;-62
2022/05/24 11:25:02;;;;;;;0.80;0.40;;;;;;;25.92;36.40;98593.50;5057035;28;20103;-62
2022/05/24 11:27:47;;;;;;;4.43;2.63;;;;;;;25.95;36.35;98595.47;5063250;28;20041;-61
2022/05/24 11:30:25;;;;;;;4.22;2.33;;;;;;;25.97;35.90;98598.63;5068733;28;20044;-62
2022/05/24 11:32:54;;;;;;;6.55;3.08;;;;;;;25.90;36.16;98599.53;5059178;28;20527;-62
2022/05/24 11:35:19;;;;;;;4.13;2.63;;;;;;;25.89;36.35;98594.38;5053005;28;20127;-62
2022/05/24 11:37:51;;;;;;;5.43;2.67;;;;;;;25.88;35.86;98598.41;5047772;28;20515;-62
2022/05/24 11:40:36;;;;;;;5.05;1.65;;;;;;;25.87;36.08;98583.59;5048195;28;20066;-62
2022/05/24 11:43:06;;;;;;;2.42;1.10;;;;;;;25.83;35.80;98591.28;5048112;28;20048;-62
2022/05/24 11:45:32;;;;;;;2.17;0.90;;;;;;;25.84;35.92;98583.66;5049866;28;20491;-61
2022/05/24 11:48:06;;;;;;;2.08;0.90;;;;;;;25.78;36.04;98578.53;5052672;28;20102;-62
2022/05/24 11:50:31;;;;;;;2.58;0.93;;;;;;;25.88;36.71;98575.97;5047572;28;20029;-62
2022/05/24 11:53:09;;;;;;;1.27;0.68;;;;;;;25.88;36.61;98573.19;5050916;28;20060;-61
2022/05/24 11:56:10;;;;;;;2.35;0.57;;;;;;;25.84;36.57;98566.84;5057384;28;20420;-61
2022/05/24 11:58:43;;;;;;;1.48;0.65;;;;;;;25.79;36.90;98568.16;4965264;28;20113;-61
2022/05/24 12:01:19;;;;;;;3.10;0.60;;;;;;;25.74;36.62;98563.03;4976108;28;20186;-61
2022/05/24 12:09:55;;;;;;;2.80;0.60;;;;;;;25.74;36.30;98549.03;4964910;28;20422;-67
2022/05/24 12:12:28;;;;;;;1.30;0.60;;;;;;;25.82;36.08;98546.88;4963071;28;20145;-68
2022/05/24 12:15:21;;;;;;;3.35;0.57;;;;;;;25.84;36.30;98544.44;4963784;28;20067;-68
2022/05/24 12:18:00;;;;;;;1.20;0.45;;;;;;;25.89;36.61;98543.94;4968393;28;20085;-71
2022/05/24 12:20:35;;;;;;;1.85;0.45;;;;;;;25.86;36.50;98542.78;4964179;28;20061;-70
2022/05/24 12:23:06;;;;;;;4.07;0.52;;;;;;;25.86;36.71;98536.38;4969644;28;20050;-72
2022/05/24 12:26:02;;;;;;;2.20;0.70;;;;;;;25.82;36.62;98535.69;4970715;28;20134;-69
2022/05/24 12:28:41;;;;;;;3.30;0.40;;;;;;;25.89;36.87;98524.31;4973708;28;20057;-67
2022/05/24 12:31:18;;;;;;;0.98;0.40;;;;;;;25.89;36.08;98527.91;4978143;28;20051;-66
2022/05/24 12:33:46;;;;;;;1.35;0.50;;;;;;;25.84;36.17;98530.41;5051082;28;20118;-67
2022/05/24 12:36:22;;;;;;;14.52;1.67;;;;;;;25.79;37.52;98534.53;5055305;28;20535;-68
2022/05/24 12:38:58;;;;;;;1.25;0.50;;;;;;;25.77;36.57;98518.13;5059149;28;20040;-66